createdAt,value
2023-05-09T00:00:00.868Z,12.70
2023-05-09T00:10:05.583Z,12.50
2023-05-09T00:20:10.251Z,11.60
2023-05-09T00:30:13.441Z,9.20
2023-05-09T00:40:17.599Z,8.50
2023-05-09T00:50:24.964Z,7.60
2023-05-09T01:00:28.861Z,11.50
2023-05-09T01:10:37.733Z,11.30
2023-05-09T01:20:44.161Z,11.60
2023-05-09T01:30:47.545Z,11.40
2023-05-09T01:40:54.700Z,8.30
2023-05-09T01:51:00.395Z,7.90
2023-05-09T02:01:04.208Z,12.20
2023-05-09T02:11:07.585Z,14.00
2023-05-09T02:21:11.566Z,14.30
2023-05-09T02:31:17.902Z,14.50
2023-05-09T02:41:22.216Z,10.40
2023-05-09T02:51:26.070Z,10.00
2023-05-09T03:01:30.001Z,12.80
2023-05-09T03:11:36.131Z,14.70
2023-05-09T03:21:39.921Z,13.20
2023-05-09T03:31:43.641Z,9.50
2023-05-09T03:41:48.348Z,8.90
2023-05-09T03:51:52.017Z,11.40
2023-05-09T04:01:55.828Z,11.80
2023-05-09T04:12:02.996Z,12.20
2023-05-09T04:22:06.685Z,12.10
2023-05-09T04:32:11.444Z,10.10
2023-05-09T04:42:15.198Z,9.60
2023-05-09T04:52:22.123Z,9.40
2023-05-09T05:02:26.081Z,9.30
2023-05-09T05:12:30.469Z,8.70
2023-05-09T05:22:38.260Z,8.00
2023-05-09T05:32:43.045Z,8.60
2023-05-09T05:52:50.509Z,8.70
2023-05-09T06:02:54.205Z,8.20
2023-05-09T06:12:57.968Z,7.00
2023-05-09T06:23:01.627Z,6.20
2023-05-09T06:33:05.638Z,6.60
2023-05-09T06:43:09.827Z,7.00
2023-05-09T06:53:13.638Z,7.30
2023-05-09T07:03:17.374Z,6.30
2023-05-09T07:13:21.296Z,7.10
2023-05-09T07:23:26.600Z,6.10
2023-05-09T07:33:29.778Z,5.20
2023-05-09T07:43:33.582Z,6.40
2023-05-09T07:53:37.236Z,6.60
2023-05-09T08:03:41.400Z,4.90
2023-05-09T08:25:40.300Z,4.90
2023-05-09T08:35:44.251Z,5.10
2023-05-09T08:45:51.188Z,5.20
2023-05-09T08:55:58.814Z,5.20
2023-05-09T09:06:03.018Z,4.10
2023-05-09T09:16:09.590Z,4.30
2023-05-09T09:26:13.794Z,3.20
2023-05-09T09:36:26.470Z,4.40
2023-05-09T09:46:31.547Z,3.80
2023-05-09T09:56:41.199Z,4.10
2023-05-09T10:06:52.560Z,3.10
2023-05-09T10:16:57.200Z,3.00
2023-05-09T10:27:06.532Z,3.20
2023-05-09T10:37:11.203Z,3.30
2023-05-09T10:47:15.865Z,3.50
2023-05-09T10:57:19.621Z,2.80
2023-05-09T11:07:27.757Z,3.80
2023-05-09T11:17:38.060Z,2.80
2023-05-09T11:27:41.986Z,4.00
2023-05-09T11:37:48.350Z,3.10
2023-05-09T11:47:53.664Z,3.20
2023-05-09T11:58:01.051Z,3.10
2023-05-09T12:08:04.993Z,3.10
2023-05-09T12:28:13.832Z,3.60
2023-05-09T12:38:22.033Z,3.20
2023-05-09T12:48:26.264Z,2.50
2023-05-09T12:58:30.126Z,3.10
2023-05-09T13:08:34.115Z,3.00
2023-05-09T13:18:37.946Z,3.30
2023-05-09T13:28:41.548Z,2.90
2023-05-09T13:38:45.727Z,3.50
2023-05-09T13:48:49.542Z,2.60
2023-05-09T13:58:53.220Z,2.90
2023-05-09T14:08:57.732Z,2.60
2023-05-09T14:19:01.661Z,3.50
2023-05-09T14:29:06.662Z,4.20
2023-05-09T14:39:10.457Z,3.20
2023-05-09T14:49:38.337Z,3.30
2023-05-09T14:59:42.445Z,3.60
2023-05-09T15:09:46.674Z,3.40
2023-05-09T15:19:50.569Z,3.10
2023-05-09T15:29:54.772Z,3.90
2023-05-09T15:40:03.775Z,3.50
2023-05-09T15:50:09.726Z,3.30
2023-05-09T16:00:15.969Z,3.70
2023-05-09T16:10:20.425Z,3.60
2023-05-09T16:20:24.581Z,3.80
2023-05-09T16:30:27.090Z,3.80
2023-05-09T16:40:31.019Z,4.00
2023-05-09T16:50:35.524Z,3.20
2023-05-09T17:00:39.163Z,6.30
2023-05-09T17:11:08.264Z,3.90
2023-05-09T17:21:12.731Z,4.00
2023-05-09T17:31:16.486Z,4.60
2023-05-09T17:41:20.355Z,7.20
2023-05-09T17:51:23.996Z,4.20
2023-05-09T18:01:27.640Z,7.50
2023-05-09T18:11:31.423Z,6.00
2023-05-09T18:21:34.939Z,5.60
2023-05-09T18:31:42.407Z,5.50
2023-05-09T18:41:55.488Z,4.70
2023-05-09T18:51:59.645Z,5.50
2023-05-09T19:02:03.749Z,6.20
2023-05-09T19:12:09.098Z,5.00
2023-05-09T19:22:16.216Z,5.20
2023-05-09T19:32:19.410Z,6.00
2023-05-09T19:42:22.672Z,7.20
2023-05-09T19:52:26.096Z,7.10
2023-05-09T20:02:33.674Z,8.40
2023-05-09T20:12:37.481Z,9.00
2023-05-09T20:22:41.196Z,8.00
2023-05-09T20:32:45.276Z,9.30
2023-05-09T20:42:49.369Z,8.80
2023-05-09T20:52:53.615Z,7.10
2023-05-09T21:02:58.866Z,7.40
2023-05-09T21:13:03.963Z,6.10
2023-05-09T21:23:11.404Z,5.30
2023-05-09T21:33:15.090Z,6.50
2023-05-09T21:43:19.656Z,5.80
2023-05-09T21:53:23.359Z,4.60
2023-05-09T22:03:28.215Z,5.10
2023-05-09T22:14:00.422Z,5.00
2023-05-09T22:24:04.848Z,5.10
2023-05-09T22:34:08.483Z,5.30
2023-05-09T22:44:12.159Z,5.80
2023-05-09T22:54:21.386Z,4.90
2023-05-09T23:04:25.171Z,4.90
2023-05-09T23:14:29.032Z,5.20
2023-05-09T23:24:33.595Z,5.20
2023-05-09T23:34:37.345Z,5.20
2023-05-09T23:44:41.660Z,4.60
2023-05-09T23:54:46.004Z,4.60
